< < Back
Terminal Aerodrome Forecast


Current Version              Previous Versions:   1  2  3  4  5  6  7  8  9  

Terminal Aerodrome Forecast

237
FTUS44 KBMX 240800 AAA
TAFBHM
TAF AMD
KBHM 240832Z 2409/2506 VRB02KT P6SM BKN035
     FM241400 26006KT P6SM VCSH BKN025 BKN080
     FM242000 30005KT P6SM VCSH BKN035=

Latest METAR

776
SAUS70 KWBC 241500 RRF
MTRBHM
METAR KBHM 241453Z 26007KT 10SM FEW024 SCT250 28/21 A3004 RMK AO2 SLP162
T02780211 51005


USA.gov is the U.S. government's official web portal to all federal, state and local government web resources and services.